Calverton, NY (11933)

4:33 AM EST on February 10, 2016 (GMT -0500)
Wildwood Hills | | Change Station
CLOSE
Current Station
Personal Weather Station
Location: Wading River, NY
Elevation: 128 ft
Nearby Weather Stations
Active Advisory: Special Statement

Elev 128 ft 40.97 °N, 72.81 °W | Updated 5 seconds ago

Overcast
Overcast
27.3 °F
Feels Like 27 °F
N
1.6
Wind Variable Wind from South
Gusts 1.6 mph

Today
High -- | Low -- °F
--% Chance of Precip.
Yesterday
High -- | Low -- °F
Precip. -- in
Pressure 29.60 in
Visibility 5.0 miles
Clouds Mostly Cloudy 5500 ft
Overcast 7000 ft
Windchill 27 °F
Dew Point 24 °F
Humidity 86%
Rainfall 0.00 in
Snow Depth Not available.
6:52 AM 5:18 PM
Waxing Crescent, 4% visible
METAR KHWV 100856Z AUTO 00000KT 5SM BR BKN055 OVC070 M03/M04 A2960 RMK AO2 SNB08E18 SLP023 P0000 60000 T10331039 58003 TSNO
Pressure 29.60 in
Visibility 5.0 miles
Clouds Mostly Cloudy 5500 ft
Overcast 7000 ft
Windchill 27 °F
Dew Point 24 °F
Humidity 86%
Rainfall 0.00 in
Snow Depth Not available.
6:52 AM 5:18 PM
Waxing Crescent, 4% visible
METAR KHWV 100856Z AUTO 00000KT 5SM BR BKN055 OVC070 M03/M04 A2960 RMK AO2 SNB08E18 SLP023 P0000 60000 T10331039 58003 TSNO

10-Day Weather Forecast

Almanac

Astronomy

Feb. 10, 2016 Rise Set
Actual Time
Civil Twilight
Nautical Twilight
Astronomical Twilight
Moon
Length of Visible Light
Length of Day
Tomorrow will be .
, % of the Moon is Illuminated

Today's Extremes

State Highs State Lows

Community

WunderPhotos

Upload Photos

1,891,826 photos uploaded!

WunderBlog® & News

Nearby

Air Quality

  Air Quality AQ Index Pollutant
Not available.

Snow Depth

Station Depth Elevation

Earthquake Activity

City Distance Mag. Time & Date
Minimum magnitude displayed is 2.5.

Coastal Water Temperatures

Place Temperature

Stations

Nearby Weather Stations

Station Location Temp. Windchill Dew Point Humidity Wind Precip. Elev Updated Type
                   

Watches & Warnings

Special Statement
Issued: 3:27 AM EST Feb. 10, 2016 – National Weather Service

... Snow this morning...

A steady light snow will fall through sunrise and into the morning
rush. Although snowfall rates will be low... the snow will stick to
roads and walkways... particularly those that are untreated...
resulting in slippery conditions. Extra caution should be used if
traveling this morning.


Jmc


327 am EST Wed Feb 10 2016

... Snow this morning...

A steady light snow will fall through sunrise and into the morning
rush. Although snowfall rates will be low... the snow will stick to
roads and walkways... particularly those that are untreated...
resulting in slippery conditions. Extra caution should be used if
traveling this morning.


Jmc